Time;durP1;ratioP1;P1;durP2;ratioP2;P2;SDS_P1;SDS_P2;PMS_P1;PMS_P2;Temp;Humidity;BMP_temperature;BMP_pressure;BME280_temperature;BME280_humidity;BME280_pressure;Samples;Min_cycle;Max_cycle;Signal;HPM_P1;HPM_P2
2022/01/22 00:01:03;;;;;;;15.77;4.30;;;;;;;4.05;100.00;103230.31;5073174;28;20041;-57
2022/01/22 00:03:32;;;;;;;11.95;3.85;;;;;;;4.03;100.00;103234.63;5073127;28;20048;-58
2022/01/22 00:06:00;;;;;;;12.85;3.30;;;;;;;4.09;100.00;103235.50;5073054;28;20098;-47
2022/01/22 00:08:28;;;;;;;16.52;4.03;;;;;;;4.11;100.00;103232.03;5072954;28;20055;-57
2022/01/22 00:10:56;;;;;;;16.50;3.90;;;;;;;4.08;100.00;103229.44;5072706;28;20048;-58
2022/01/22 00:16:12;;;;;;;13.07;3.90;;;;;;;4.03;100.00;103228.56;5072773;28;20052;-46
2022/01/22 00:18:41;;;;;;;14.18;3.80;;;;;;;4.11;100.00;103225.97;5072777;28;20052;-57
2022/01/22 00:21:09;;;;;;;14.98;4.22;;;;;;;4.05;100.00;103225.09;5072509;28;20094;-57
2022/01/22 00:23:39;;;;;;;17.88;4.18;;;;;;;4.11;100.00;103221.63;5072947;28;20057;-45
2022/01/22 00:26:07;;;;;;;16.50;3.78;;;;;;;4.11;100.00;103228.59;5072636;28;20487;-58
2022/01/22 00:28:35;;;;;;;12.82;4.03;;;;;;;4.11;100.00;103228.59;5072546;28;20098;-58
2022/01/22 00:31:03;;;;;;;16.98;3.50;;;;;;;4.07;100.00;103218.13;5072695;28;20047;-58
2022/01/22 00:33:33;;;;;;;14.10;3.50;;;;;;;4.10;100.00;103222.47;5072541;28;20143;-49
2022/01/22 00:36:01;;;;;;;14.20;3.85;;;;;;;4.15;100.00;103212.09;5072264;28;20071;-51
2022/01/22 00:38:29;;;;;;;21.33;4.22;;;;;;;4.13;100.00;103217.31;5071803;28;20045;-58
2022/01/22 00:40:57;;;;;;;12.57;3.85;;;;;;;4.14;100.00;103211.19;5070562;28;20052;-58
2022/01/22 00:43:26;;;;;;;12.88;3.78;;;;;;;4.16;100.00;103214.69;5071972;28;20459;-52
2022/01/22 00:45:54;;;;;;;12.73;3.58;;;;;;;4.17;100.00;103218.16;5071774;28;20037;-47
2022/01/22 00:48:22;;;;;;;14.07;4.20;;;;;;;4.18;100.00;103212.94;5071980;28;20388;-47
2022/01/22 00:50:55;;;;;;;11.90;3.70;;;;;;;4.20;100.00;103213.81;5072230;28;20486;-48
2022/01/22 00:53:24;;;;;;;12.02;4.03;;;;;;;4.17;100.00;103212.94;5072268;28;20507;-47
2022/01/22 00:55:52;;;;;;;12.80;4.18;;;;;;;4.17;100.00;103203.41;5072324;28;20118;-57
2022/01/22 00:58:20;;;;;;;12.75;4.00;;;;;;;4.17;100.00;103212.94;5072046;28;20055;-57
2022/01/22 01:00:48;;;;;;;13.40;3.90;;;;;;;4.19;100.00;103212.06;5072246;28;20049;-58
2022/01/22 01:03:17;;;;;;;16.20;4.07;;;;;;;4.18;100.00;103202.50;5072072;28;20056;-58
2022/01/22 01:05:45;;;;;;;10.75;3.75;;;;;;;4.15;100.00;103205.13;5072203;28;20123;-57
2022/01/22 01:08:14;;;;;;;10.23;4.00;;;;;;;4.16;100.00;103204.25;5071891;28;20052;-56
2022/01/22 01:10:44;;;;;;;14.20;4.15;;;;;;;4.14;100.00;103215.56;5072194;28;20170;-50
2022/01/22 01:13:14;;;;;;;14.38;4.72;;;;;;;4.15;100.00;103215.53;5071894;28;20396;-58
2022/01/22 01:15:55;;;;;;;12.73;4.43;;;;;;;4.16;100.00;103209.47;5070737;28;20565;-48
2022/01/22 01:32:19;;;;;;;13.80;4.95;;;;;;;4.16;100.00;103214.69;5071703;28;20426;-49
2022/01/22 01:34:49;;;;;;;14.32;4.85;;;;;;;4.22;100.00;103213.81;5071973;28;20129;-49
2022/01/22 01:37:19;;;;;;;14.95;4.78;;;;;;;4.23;100.00;103211.19;5071844;28;20059;-48
2022/01/22 01:39:53;;;;;;;12.63;4.78;;;;;;;4.21;100.00;103217.28;5071838;28;20056;-51
2022/01/22 01:42:29;;;;;;;15.43;5.00;;;;;;;4.21;100.00;103209.47;5071509;28;20047;-51
2022/01/22 01:45:00;;;;;;;14.00;5.03;;;;;;;4.20;100.00;103211.22;5071715;28;20056;-48
2022/01/22 01:47:29;;;;;;;15.52;5.20;;;;;;;4.28;100.00;103215.53;5071660;28;20041;-48
2022/01/22 01:49:57;;;;;;;7.55;4.57;;;;;;;4.24;100.00;103212.09;5071511;28;20068;-55
2022/01/22 01:52:33;;;;;;;11.27;4.25;;;;;;;4.21;100.00;103215.56;5071157;28;20044;-57
2022/01/22 01:55:09;;;;;;;14.10;5.10;;;;;;;4.19;100.00;103216.44;5071389;28;20534;-56
2022/01/22 01:57:38;;;;;;;16.35;4.85;;;;;;;4.23;100.00;103212.94;5073545;28;20604;-57
2022/01/22 02:00:19;;;;;;;15.40;5.45;;;;;;;4.19;100.00;103219.88;5075640;28;20144;-57
2022/01/22 02:02:48;;;;;;;13.23;5.18;;;;;;;4.21;100.00;103220.75;5075337;28;20048;-48
2022/01/22 02:05:19;;;;;;;12.07;4.90;;;;;;;4.22;100.00;103222.47;5075184;28;20063;-56
2022/01/22 02:07:47;;;;;;;9.30;5.10;;;;;;;4.17;100.00;103224.25;5107757;28;20056;-47
2022/01/22 02:10:21;;;;;;;10.73;4.95;;;;;;;4.24;100.00;103219.91;5075241;28;20072;-49
2022/01/22 02:13:39;;;;;;;12.82;5.15;;;;;;;4.23;100.00;103213.81;5075508;28;20052;-56
2022/01/22 02:24:21;;;;;;;16.35;5.88;;;;;;;4.25;100.00;103224.22;5032655;28;20492;-57
2022/01/22 02:26:50;;;;;;;11.90;5.43;;;;;;;4.29;100.00;103218.13;5057214;28;20110;-56
2022/01/22 02:29:19;;;;;;;21.05;6.95;;;;;;;4.28;100.00;103228.56;5074853;28;20051;-46
2022/01/22 02:32:01;;;;;;;15.02;6.47;;;;;;;4.35;100.00;103225.06;5074859;28;20068;-48
2022/01/22 02:34:37;;;;;;;18.13;6.38;;;;;;;4.30;100.00;103219.88;5075102;28;20491;-47
2022/01/22 02:37:12;;;;;;;18.40;6.55;;;;;;;4.33;100.00;103219.88;5074889;28;20044;-57
2022/01/22 02:39:45;;;;;;;15.63;6.05;;;;;;;4.28;100.00;103208.59;5073998;28;20364;-57
2022/01/22 02:42:14;;;;;;;20.70;5.90;;;;;;;4.30;100.00;103206.84;5074901;28;20044;-57
2022/01/22 02:44:46;;;;;;;16.13;6.22;;;;;;;4.37;100.00;103207.72;5074914;28;20444;-45
2022/01/22 02:47:15;;;;;;;9.60;5.43;;;;;;;4.34;100.00;103202.53;5074700;28;20107;-46
2022/01/22 02:49:43;;;;;;;15.27;5.97;;;;;;;4.37;100.00;103210.31;5074673;28;20568;-47
2022/01/22 02:52:13;;;;;;;18.35;6.50;;;;;;;4.34;100.00;103215.53;5074642;28;20086;-47
2022/01/22 02:54:41;;;;;;;16.27;6.32;;;;;;;4.36;100.00;103213.78;5074349;28;20052;-57
2022/01/22 02:57:10;;;;;;;13.60;5.95;;;;;;;4.41;100.00;103222.47;5072992;28;20181;-47
2022/01/22 02:59:39;;;;;;;18.73;6.72;;;;;;;4.40;100.00;103220.72;5074269;28;20045;-50
2022/01/22 03:02:12;;;;;;;12.85;6.80;;;;;;;4.33;100.00;103229.44;5074360;28;20048;-45
2022/01/22 03:04:40;;;;;;;23.48;6.60;;;;;;;4.36;100.00;103225.09;5074248;28;20043;-57
2022/01/22 03:07:09;;;;;;;18.52;6.63;;;;;;;4.38;100.00;103225.09;5074097;28;20383;-57
2022/01/22 03:09:41;;;;;;;17.75;6.60;;;;;;;4.33;100.00;103219.88;5073175;28;20052;-47
2022/01/22 03:12:31;;;;;;;;;;;;;;;4.34;100.00;103223.38;5074600;28;20502;-57
2022/01/22 03:17:58;;;;;;;19.38;7.78;;;;;;;4.36;100.00;103225.09;5049725;28;20048;-45
2022/01/22 03:20:42;;;;;;;19.88;7.13;;;;;;;4.43;100.00;103227.69;5074019;28;20044;-57
2022/01/22 03:27:16;;;;;;;19.75;6.70;;;;;;;4.41;100.00;103227.69;5073702;28;20361;-45
2022/01/22 03:28:58;;;;;;;18.52;7.10;;;;;;;4.44;100.00;103224.22;5073763;28;20094;-55
2022/01/22 03:31:26;;;;;;;19.17;7.05;;;;;;;4.43;100.00;103222.47;5073736;28;20048;-57
2022/01/22 03:33:54;;;;;;;17.27;6.75;;;;;;;4.42;100.00;103221.63;5072371;28;20124;-47
2022/01/22 03:36:23;;;;;;;25.92;6.90;;;;;;;4.46;100.00;103225.06;5072282;28;20406;-49
2022/01/22 03:38:51;;;;;;;17.10;6.40;;;;;;;4.45;100.00;103213.78;5073579;28;20127;-46
2022/01/22 03:41:23;;;;;;;18.70;6.72;;;;;;;4.47;100.00;103226.81;5073408;28;20045;-57
2022/01/22 03:43:51;;;;;;;18.20;6.53;;;;;;;4.48;100.00;103229.41;5073418;28;20495;-45
2022/01/22 03:46:21;;;;;;;17.55;6.50;;;;;;;4.53;100.00;103226.81;5073284;28;20052;-57
2022/01/22 03:48:49;;;;;;;22.13;6.28;;;;;;;4.46;100.00;103225.06;5073397;28;20102;-45
2022/01/22 03:51:18;;;;;;;16.17;7.45;;;;;;;4.48;100.00;103229.41;5073283;28;20098;-57
2022/01/22 03:53:46;;;;;;;18.05;6.55;;;;;;;4.48;100.00;103229.41;5073171;28;20063;-56
2022/01/22 03:56:14;;;;;;;18.38;6.30;;;;;;;4.49;100.00;103236.34;5073232;28;20379;-51
2022/01/22 03:58:45;;;;;;;16.42;6.85;;;;;;;4.51;100.00;103234.63;5073057;28;20072;-57
2022/01/22 04:04:01;;;;;;;16.20;6.32;;;;;;;4.46;100.00;103230.28;5050294;28;20064;-57
2022/01/22 04:07:12;;;;;;;15.45;7.22;;;;;;;4.51;100.00;103229.44;5072760;28;20067;-45
2022/01/22 04:09:43;;;;;;;13.00;5.88;;;;;;;4.54;100.00;103238.94;5072520;28;20058;-47
2022/01/22 04:12:12;;;;;;;20.30;7.07;;;;;;;4.53;100.00;103238.09;5072550;28;20584;-47
2022/01/22 04:14:48;;;;;;;13.30;6.00;;;;;;;4.57;100.00;103242.44;5072259;28;20517;-48
2022/01/22 04:17:35;;;;;;;17.73;6.85;;;;;;;4.54;100.00;103238.94;5072774;28;20037;-50
2022/01/22 04:25:38;;;;;;;15.70;5.93;;;;;;;4.53;100.00;103235.47;5072740;28;20045;-57
2022/01/22 04:28:06;;;;;;;20.03;5.70;;;;;;;4.55;100.00;103236.38;5071222;28;20052;-49
2022/01/22 04:30:36;;;;;;;15.48;5.88;;;;;;;4.60;100.00;103244.16;5072640;28;21010;-57
2022/01/22 04:33:04;;;;;;;11.82;5.55;;;;;;;4.62;100.00;103237.22;5072495;28;20051;-49
2022/01/22 04:35:33;;;;;;;14.20;4.97;;;;;;;4.61;100.00;103234.59;5072496;28;20052;-50
2022/01/22 04:38:01;;;;;;;15.48;6.28;;;;;;;4.62;100.00;103231.13;5072507;28;20052;-57
2022/01/22 04:40:29;;;;;;;18.67;5.38;;;;;;;4.65;100.00;103237.22;5072508;28;20043;-56
2022/01/22 04:42:59;;;;;;;14.30;5.00;;;;;;;4.54;100.00;103232.03;5072306;28;20040;-57
2022/01/22 04:45:41;;;;;;;15.10;5.22;;;;;;;4.56;100.00;103232.88;5072695;28;20463;-57
2022/01/22 04:48:25;;;;;;;15.70;5.70;;;;;;;4.60;100.00;103236.34;5072286;28;20062;-49
2022/01/22 04:56:27;;;;;;;18.15;5.70;;;;;;;4.62;100.00;103236.34;5071830;28;20044;-48
2022/01/22 04:58:55;;;;;;;14.15;5.60;;;;;;;4.62;100.00;103236.34;5071865;28;20052;-56
2022/01/22 05:01:23;;;;;;;15.48;4.75;;;;;;;4.62;100.00;103234.63;5071901;28;20048;-57
2022/01/22 05:03:53;;;;;;;12.40;4.72;;;;;;;4.67;100.00;103237.22;5072055;28;20033;-57
2022/01/22 05:06:21;;;;;;;15.95;5.65;;;;;;;4.65;100.00;103231.09;5071813;28;20632;-48
2022/01/22 05:08:49;;;;;;;10.25;4.43;;;;;;;4.63;100.00;103236.34;5071620;28;20040;-48
2022/01/22 05:11:18;;;;;;;14.48;4.45;;;;;;;4.72;100.00;103227.63;5070329;28;20056;-46
2022/01/22 05:13:46;;;;;;;11.13;4.43;;;;;;;4.68;100.00;103229.38;5071862;28;20442;-44
2022/01/22 05:16:15;;;;;;;14.02;4.57;;;;;;;4.65;100.00;103223.28;5072051;28;20040;-47
2022/01/22 05:18:50;;;;;;;13.30;4.20;;;;;;;4.66;100.00;103219.81;5072312;28;20037;-48
2022/01/22 05:21:21;;;;;;;12.23;4.03;;;;;;;4.71;100.00;103221.53;5071869;28;20492;-48
2022/01/22 05:23:50;;;;;;;13.93;4.45;;;;;;;4.71;100.00;103207.66;5071952;28;20045;-57
2022/01/22 05:26:50;;;;;;;13.48;4.05;;;;;;;4.70;100.00;103218.94;5071804;28;20060;-57
2022/01/22 05:29:30;;;;;;;15.63;4.30;;;;;;;4.70;100.00;103216.34;5071907;28;20048;-55
2022/01/22 05:37:31;;;;;;;13.70;4.70;;;;;;;4.72;100.00;103220.69;5075905;28;20450;-49
2022/01/22 05:39:59;;;;;;;14.93;3.63;;;;;;;4.71;100.00;103216.31;5076031;28;20507;-57
2022/01/22 05:42:28;;;;;;;10.57;3.53;;;;;;;4.72;100.00;103219.81;5075592;28;20437;-57
2022/01/22 05:44:56;;;;;;;10.23;3.47;;;;;;;4.74;100.00;103225.88;5075702;28;20533;-56
2022/01/22 05:47:27;;;;;;;12.32;3.55;;;;;;;4.76;100.00;103234.59;5075874;28;20068;-57
2022/01/22 05:49:55;;;;;;;10.25;3.17;;;;;;;4.75;100.00;103238.06;5075764;28;20045;-57
2022/01/22 05:52:30;;;;;;;9.13;2.55;;;;;;;4.76;100.00;103239.78;5075457;28;20045;-57
2022/01/22 05:55:26;;;;;;;10.15;2.92;;;;;;;4.78;100.00;103238.03;5075733;28;20040;-47
2022/01/22 06:00:40;;;;;;;7.55;2.75;;;;;;;4.77;100.00;103238.91;5075742;28;20044;-57
2022/01/22 06:03:08;;;;;;;9.63;2.80;;;;;;;4.79;100.00;103249.34;5075269;28;20055;-57
2022/01/22 06:05:36;;;;;;;9.75;3.40;;;;;;;4.79;100.00;103242.38;5075274;28;20037;-49
2022/01/22 06:08:05;;;;;;;8.65;2.95;;;;;;;4.78;100.00;103240.66;5075348;28;20044;-49
2022/01/22 06:10:35;;;;;;;13.38;3.28;;;;;;;4.86;100.00;103238.88;5075220;28;20041;-50
2022/01/22 06:13:13;;;;;;;10.35;3.20;;;;;;;4.83;100.00;103241.50;5075292;28;20044;-57
2022/01/22 06:15:41;;;;;;;14.63;3.65;;;;;;;4.81;100.00;103242.38;5075192;28;20067;-57
2022/01/22 06:18:09;;;;;;;11.18;3.25;;;;;;;4.82;100.00;103244.13;5075218;28;20552;-55
2022/01/22 06:20:37;;;;;;;9.45;3.10;;;;;;;4.82;100.00;103239.75;5107723;28;20065;-57
2022/01/22 06:23:08;;;;;;;8.48;2.75;;;;;;;4.84;100.00;103245.84;5075356;28;20423;-56
2022/01/22 06:25:37;;;;;;;7.13;2.58;;;;;;;4.84;100.00;103248.47;5073775;28;20048;-49
2022/01/22 06:28:06;;;;;;;8.30;2.88;;;;;;;4.89;100.00;103246.72;5073552;28;20041;-46
2022/01/22 06:30:34;;;;;;;8.82;3.22;;;;;;;4.87;100.00;103245.84;5074722;28;20048;-46
2022/01/22 06:33:02;;;;;;;10.38;3.47;;;;;;;4.89;100.00;103257.16;5074888;28;20442;-57
2022/01/22 06:35:30;;;;;;;11.85;3.53;;;;;;;4.84;100.00;103258.91;5074951;28;20063;-57
2022/01/22 06:38:00;;;;;;;12.73;4.10;;;;;;;4.80;100.00;103265.00;5074895;28;20044;-57
2022/01/22 06:43:15;;;;;;;15.75;3.95;;;;;;;4.81;100.00;103264.09;5073691;28;20048;-57
2022/01/22 06:45:43;;;;;;;11.32;5.18;;;;;;;4.82;100.00;103264.97;5073997;28;20052;-44
2022/01/22 06:48:11;;;;;;;10.63;3.63;;;;;;;4.88;100.00;103265.84;5073261;28;20098;-45
2022/01/22 06:50:39;;;;;;;14.20;3.85;;;;;;;4.89;100.00;103274.50;5074449;28;20066;-57
2022/01/22 06:53:07;;;;;;;14.07;4.22;;;;;;;4.92;100.00;103266.69;5074562;28;20052;-57
2022/01/22 06:55:40;;;;;;;12.85;4.22;;;;;;;4.90;100.00;103277.13;5074725;28;20063;-57
2022/01/22 06:58:09;;;;;;;13.45;4.45;;;;;;;4.89;100.00;103277.13;5074431;28;20040;-57
2022/01/22 07:00:38;;;;;;;13.60;5.03;;;;;;;4.91;100.00;103275.41;5074024;28;20079;-57
2022/01/22 07:03:07;;;;;;;12.88;5.15;;;;;;;4.91;100.00;103284.06;5074072;28;20044;-57
2022/01/22 07:05:35;;;;;;;14.82;5.28;;;;;;;4.92;100.00;103287.53;5073897;28;20037;-56
2022/01/22 07:08:03;;;;;;;13.95;5.43;;;;;;;4.94;100.00;103283.22;5074374;28;20123;-57
2022/01/22 07:10:32;;;;;;;13.60;6.13;;;;;;;4.94;100.00;103285.81;5073962;28;20059;-56
2022/01/22 07:13:00;;;;;;;14.82;6.00;;;;;;;4.93;100.00;103291.03;5074143;28;20379;-56
2022/01/22 07:15:29;;;;;;;16.50;6.15;;;;;;;4.90;100.00;103292.75;5073656;28;20045;-56
2022/01/22 07:17:58;;;;;;;14.55;6.15;;;;;;;4.90;100.00;103295.38;5074188;28;20384;-57
2022/01/22 07:20:29;;;;;;;17.30;5.95;;;;;;;4.91;100.00;103299.72;5073880;28;20044;-46
2022/01/22 07:23:03;;;;;;;11.90;5.15;;;;;;;4.89;100.00;103292.78;5074128;28;20410;-49
2022/01/22 07:25:31;;;;;;;16.10;6.20;;;;;;;4.93;100.00;103293.66;5074148;28;20040;-47
2022/01/22 07:27:59;;;;;;;16.60;6.60;;;;;;;4.96;100.00;103294.47;5074045;28;20072;-47
2022/01/22 07:30:28;;;;;;;10.23;5.18;;;;;;;4.92;100.00;103287.53;5072778;28;20080;-47
2022/01/22 07:32:58;;;;;;;12.65;5.20;;;;;;;4.87;100.00;103289.31;5073854;28;20052;-49
2022/01/22 07:35:26;;;;;;;11.13;5.38;;;;;;;4.86;100.00;103290.19;5073977;28;20733;-48
2022/01/22 07:37:54;;;;;;;13.73;4.93;;;;;;;4.90;100.00;103292.75;5073802;28;20048;-57
2022/01/22 07:40:22;;;;;;;13.02;4.97;;;;;;;4.93;100.00;103278.84;5073716;28;20056;-56
2022/01/22 07:42:50;;;;;;;13.35;5.55;;;;;;;4.94;100.00;103284.97;5073633;28;20044;-56
2022/01/22 07:45:19;;;;;;;10.95;4.45;;;;;;;4.87;100.00;103282.34;5073582;28;20050;-56
2022/01/22 07:47:47;;;;;;;11.35;3.63;;;;;;;4.89;100.00;103285.84;5073539;28;20040;-47
2022/01/22 07:50:16;;;;;;;10.15;4.15;;;;;;;4.90;100.00;103284.94;5073457;28;20484;-57
2022/01/22 07:52:45;;;;;;;11.43;3.88;;;;;;;4.91;100.00;103281.47;5073363;28;20062;-49
2022/01/22 07:55:13;;;;;;;9.90;3.95;;;;;;;4.93;100.00;103285.81;5072751;28;20068;-50
2022/01/22 07:57:41;;;;;;;11.77;4.13;;;;;;;4.94;100.00;103282.34;5073043;28;20052;-56
2022/01/22 08:00:11;;;;;;;12.00;4.30;;;;;;;4.99;100.00;103288.41;5073433;28;20102;-45
2022/01/22 08:02:39;;;;;;;11.10;4.05;;;;;;;5.01;100.00;103278.84;5073181;28;20048;-46
2022/01/22 08:05:09;;;;;;;8.57;3.45;;;;;;;5.06;100.00;103290.13;5071949;28;20060;-47
2022/01/22 08:07:39;;;;;;;11.60;3.67;;;;;;;5.02;100.00;103284.06;5073506;28;20049;-45
2022/01/22 08:10:10;;;;;;;14.35;3.78;;;;;;;5.02;100.00;103280.59;5073167;28;20060;-48
2022/01/22 08:12:39;;;;;;;10.45;3.40;;;;;;;5.05;100.00;103281.44;5105546;28;20144;-45
2022/01/22 08:15:09;;;;;;;11.85;3.88;;;;;;;5.08;100.00;103288.38;5073177;28;20076;-48
2022/01/22 08:17:37;;;;;;;11.77;3.63;;;;;;;5.07;100.00;103292.75;5073155;28;20056;-48
2022/01/22 08:20:07;;;;;;;10.27;3.28;;;;;;;5.06;100.00;103292.75;5072938;28;20106;-48
2022/01/22 08:22:35;;;;;;;9.73;3.33;;;;;;;5.11;100.00;103296.19;5072800;28;20453;-48
2022/01/22 08:25:06;;;;;;;10.77;3.10;;;;;;;5.10;100.00;103306.63;5072744;28;20048;-50
2022/01/22 08:27:40;;;;;;;9.95;3.20;;;;;;;5.13;100.00;103310.09;5072844;28;20047;-50
2022/01/22 08:30:13;;;;;;;11.15;3.50;;;;;;;5.13;100.00;103312.72;5072859;28;20483;-47
2022/01/22 08:33:07;;;;;;;9.27;3.20;;;;;;;5.18;100.00;103312.69;5072679;28;20044;-51
2022/01/22 08:38:32;;;;;;;8.63;3.47;;;;;;;5.25;100.00;103311.81;5048004;28;20056;-46
2022/01/22 08:41:02;;;;;;;11.50;4.20;;;;;;;5.27;100.00;103315.28;5072579;28;20040;-47
2022/01/22 08:43:30;;;;;;;11.60;3.88;;;;;;;5.29;100.00;103307.44;5072449;28;20066;-48
2022/01/22 08:45:58;;;;;;;13.23;3.60;;;;;;;5.31;100.00;103314.38;5072841;28;20404;-48
2022/01/22 08:48:26;;;;;;;12.05;4.25;;;;;;;5.31;100.00;103310.94;5072424;28;20090;-48
2022/01/22 08:50:54;;;;;;;11.57;3.25;;;;;;;5.36;100.00;103317.84;5072444;28;20399;-49
2022/01/22 08:53:42;;;;;;;13.10;4.35;;;;;;;5.35;100.00;103325.69;5072110;28;20056;-49
2022/01/22 08:56:12;;;;;;;13.40;4.32;;;;;;;5.39;100.00;103325.66;5072325;28;20044;-52
2022/01/22 08:58:40;;;;;;;12.73;3.72;;;;;;;5.39;100.00;103330.03;5072071;28;20048;-46
2022/01/22 09:01:09;;;;;;;12.63;4.15;;;;;;;5.44;100.00;103333.50;5071928;28;20045;-50
2022/01/22 09:03:37;;;;;;;12.98;3.50;;;;;;;5.41;100.00;103338.72;5072309;28;20097;-51
2022/01/22 09:06:07;;;;;;;10.68;3.90;;;;;;;5.46;100.00;103336.97;5072063;28;20040;-49
2022/01/22 09:08:36;;;;;;;11.23;3.83;;;;;;;5.46;100.00;103336.97;5071828;28;20040;-48
2022/01/22 09:11:04;;;;;;;21.50;3.63;;;;;;;5.47;100.00;103336.09;5072293;28;20062;-51
2022/01/22 09:13:34;;;;;;;10.70;3.40;;;;;;;5.42;100.00;103343.06;5071987;28;20045;-45
2022/01/22 09:16:02;;;;;;;11.18;3.75;;;;;;;5.45;100.00;103344.78;5072264;28;20040;-46
2022/01/22 09:18:31;;;;;;;17.25;4.05;;;;;;;5.47;100.00;103338.69;5072129;28;20438;-51
2022/01/22 09:21:06;;;;;;;14.02;4.15;;;;;;;5.46;100.00;103346.53;5071921;28;20049;-47
2022/01/22 09:23:35;;;;;;;10.88;4.15;;;;;;;5.47;100.00;103348.25;5071839;28;20462;-49
2022/01/22 09:26:04;;;;;;;11.50;3.40;;;;;;;5.50;100.00;103354.34;5072215;28;20064;-48
2022/01/22 09:28:35;;;;;;;10.07;3.90;;;;;;;5.53;100.00;103359.53;5071987;28;20376;-49
2022/01/22 09:31:04;;;;;;;13.80;4.53;;;;;;;5.57;100.00;103356.03;5071985;28;20106;-48
2022/01/22 09:33:32;;;;;;;11.20;3.42;;;;;;;5.57;100.00;103357.81;5071724;28;20049;-46
2022/01/22 09:36:00;;;;;;;12.57;3.35;;;;;;;5.58;100.00;103349.09;5071908;28;20045;-48
2022/01/22 09:38:28;;;;;;;11.57;3.53;;;;;;;5.60;100.00;103352.56;5071640;28;20499;-47
2022/01/22 09:40:56;;;;;;;7.82;3.33;;;;;;;5.62;100.00;103349.94;5072102;28;20572;-46
2022/01/22 09:43:24;;;;;;;9.32;2.97;;;;;;;5.63;100.00;103356.91;5071694;28;20086;-48
2022/01/22 09:45:54;;;;;;;7.53;2.80;;;;;;;5.63;100.00;103368.25;5072021;28;20041;-49
2022/01/22 09:48:22;;;;;;;10.43;2.90;;;;;;;5.55;100.00;103363.03;5071624;28;20542;-49
2022/01/22 09:50:50;;;;;;;11.35;3.50;;;;;;;5.62;100.00;103368.22;5071923;28;20049;-47
2022/01/22 09:53:19;;;;;;;10.02;3.33;;;;;;;5.60;100.00;103373.44;5071644;28;20086;-48
2022/01/22 09:55:47;;;;;;;12.35;3.58;;;;;;;5.55;100.00;103378.69;5071801;28;20033;-48
2022/01/22 09:58:15;;;;;;;10.27;3.58;;;;;;;5.59;100.00;103376.94;5071670;28;20041;-48
2022/01/22 10:00:44;;;;;;;12.38;3.45;;;;;;;5.63;100.00;103375.19;5070396;28;20075;-50
2022/01/22 10:03:19;;;;;;;11.07;3.75;;;;;;;5.63;100.00;103377.78;5071799;28;20049;-49
2022/01/22 10:05:49;;;;;;;8.38;3.10;;;;;;;5.67;100.00;103382.13;5071677;28;20041;-49
2022/01/22 10:08:27;;;;;;;9.07;3.35;;;;;;;5.65;100.00;103383.88;5071215;28;20041;-48
2022/01/22 10:10:57;;;;;;;13.40;3.70;;;;;;;5.61;100.00;103383.03;5071591;28;20525;-47
2022/01/22 10:13:44;;;;;;;10.20;3.45;;;;;;;5.65;100.00;103376.06;5071389;28;20061;-46
2022/01/22 10:16:14;;;;;;;9.02;3.15;;;;;;;5.64;100.00;103383.00;5071763;28;20040;-48
2022/01/22 10:18:45;;;;;;;16.15;4.20;;;;;;;5.66;100.00;103388.22;5073460;28;20131;-48
2022/01/22 10:21:15;;;;;;;14.27;3.42;;;;;;;5.69;100.00;103388.22;5075223;28;20124;-48
2022/01/22 10:23:43;;;;;;;10.32;4.18;;;;;;;5.70;100.00;103396.06;5075158;28;20051;-57
2022/01/22 10:26:15;;;;;;;9.65;4.35;;;;;;;5.69;100.00;103396.06;5075162;28;20068;-50
2022/01/22 10:28:47;;;;;;;9.25;3.50;;;;;;;5.72;100.00;103391.66;5074952;28;20106;-58
2022/01/22 10:31:22;;;;;;;15.68;3.97;;;;;;;5.78;100.00;103392.53;5074805;28;20056;-58
2022/01/22 10:34:09;;;;;;;14.88;3.63;;;;;;;5.78;100.00;103388.19;5074641;28;20563;-57
2022/01/22 10:36:39;;;;;;;15.15;4.13;;;;;;;5.79;100.00;103382.06;5074612;28;20075;-57
2022/01/22 10:39:09;;;;;;;13.15;4.25;;;;;;;5.78;100.00;103382.97;5074463;28;20071;-58
2022/01/22 10:41:39;;;;;;;10.40;3.53;;;;;;;5.78;100.00;103377.75;5074565;28;20058;-58
2022/01/22 10:44:10;;;;;;;9.30;3.40;;;;;;;5.73;100.00;103384.72;5074798;28;20490;-57
2022/01/22 10:46:45;;;;;;;14.23;4.70;;;;;;;5.73;100.00;103382.13;5075060;28;20040;-57
2022/01/22 10:49:16;;;;;;;15.30;4.32;;;;;;;5.73;100.00;103379.50;5074976;28;20547;-57
2022/01/22 10:51:48;;;;;;;9.90;3.92;;;;;;;5.74;100.00;103381.25;5074666;28;20449;-51
2022/01/22 10:54:18;;;;;;;12.88;4.00;;;;;;;5.72;100.00;103382.97;5074471;28;20052;-46
2022/01/22 10:56:47;;;;;;;15.60;4.32;;;;;;;5.78;100.00;103380.34;5075012;28;20052;-45
2022/01/22 10:59:17;;;;;;;14.20;4.10;;;;;;;5.78;100.00;103382.09;5073272;28;20049;-58
2022/01/22 11:01:48;;;;;;;7.63;3.45;;;;;;;5.81;100.00;103393.41;5074489;28;20177;-48
2022/01/22 11:04:19;;;;;;;15.13;4.68;;;;;;;5.79;100.00;103387.28;5074601;28;20060;-58
2022/01/22 11:06:50;;;;;;;10.38;4.25;;;;;;;5.78;100.00;103380.34;5074452;28;20037;-49
2022/01/22 11:09:38;;;;;;;13.27;5.00;;;;;;;5.81;100.00;103379.44;5073268;28;20044;-46
2022/01/22 11:12:07;;;;;;;13.02;5.00;;;;;;;5.85;100.00;103376.84;5074374;28;20124;-45
2022/01/22 11:14:37;;;;;;;8.02;3.92;;;;;;;5.90;100.00;103375.06;5074290;28;20044;-46
2022/01/22 11:17:06;;;;;;;11.27;3.35;;;;;;;5.94;100.00;103370.69;5074161;28;20036;-58
2022/01/22 11:19:38;;;;;;;10.80;3.55;;;;;;;5.87;100.00;103371.59;5074297;28;20052;-50
2022/01/22 11:22:09;;;;;;;11.50;3.80;;;;;;;5.94;100.00;103368.06;5072935;28;20136;-50
2022/01/22 11:24:40;;;;;;;7.75;3.00;;;;;;;5.98;100.00;103377.66;5074143;28;20053;-49
2022/01/22 11:27:10;;;;;;;11.48;3.60;;;;;;;5.98;100.00;103375.03;5074035;28;20041;-48
2022/01/22 11:29:42;;;;;;;8.60;2.95;;;;;;;5.98;100.00;103382.03;5073191;28;20070;-50
2022/01/22 11:32:13;;;;;;;9.90;3.40;;;;;;;6.02;100.00;103391.59;5073958;28;20068;-47
2022/01/22 11:34:47;;;;;;;10.50;3.60;;;;;;;5.95;100.00;103380.25;5073749;28;20049;-50
2022/01/22 11:37:20;;;;;;;9.73;3.42;;;;;;;6.00;100.00;103381.16;5073791;28;20439;-49
2022/01/22 11:39:48;;;;;;;;;;;;;;;6.01;100.00;103379.38;5074248;28;20395;-50
2022/01/22 11:42:16;;;;;;;8.48;4.25;;;;;;;6.04;100.00;103376.75;5072345;28;19958;-51
2022/01/22 11:44:47;;;;;;;11.60;4.28;;;;;;;6.10;100.00;103381.97;5073515;28;20056;-49
2022/01/22 11:47:17;;;;;;;13.18;3.30;;;;;;;6.08;100.00;103386.31;5073555;28;20055;-46
2022/01/22 11:50:09;;;;;;;15.75;3.88;;;;;;;6.15;100.00;103377.56;5073484;28;20074;-50
2022/01/22 11:52:39;;;;;;;10.90;3.67;;;;;;;6.14;100.00;103380.22;5073731;28;20053;-50
2022/01/22 11:55:10;;;;;;;12.63;4.28;;;;;;;6.07;100.00;103377.63;5073366;28;20436;-49
2022/01/22 11:57:39;;;;;;;14.45;4.32;;;;;;;6.09;100.00;103369.75;5073322;28;20044;-49
2022/01/22 12:00:20;;;;;;;16.33;4.38;;;;;;;6.02;100.00;103381.13;5073392;28;20448;-49
2022/01/22 12:03:18;;;;;;;11.15;4.28;;;;;;;5.95;100.00;103368.97;5073381;28;20445;-49
2022/01/22 12:06:09;;;;;;;9.02;3.90;;;;;;;5.89;100.00;103365.50;5073298;28;20080;-48
2022/01/22 12:09:09;;;;;;;10.70;4.68;;;;;;;5.96;100.00;103374.16;5073117;28;20052;-48
2022/01/22 12:14:54;;;;;;;10.32;4.75;;;;;;;6.09;100.00;103378.50;5073476;28;20538;-46
2022/01/22 12:17:58;;;;;;;13.50;4.43;;;;;;;6.11;100.00;103373.25;5073158;28;20047;-46
2022/01/22 12:23:53;;;;;;;9.35;4.18;;;;;;;6.19;100.00;103378.41;5075243;28;20040;-51
2022/01/22 12:26:44;;;;;;;10.60;3.70;;;;;;;6.25;100.00;103383.59;5072867;28;20075;-48
2022/01/22 12:29:32;;;;;;;9.18;3.78;;;;;;;6.32;100.00;103374.84;5073695;28;20398;-49
2022/01/22 12:35:15;;;;;;;8.90;3.53;;;;;;;6.30;100.00;103378.34;5071877;28;20060;-58
2022/01/22 12:38:02;;;;;;;10.25;3.33;;;;;;;6.31;100.00;103380.09;5072776;28;20036;-59
2022/01/22 12:40:34;;;;;;;12.73;3.30;;;;;;;6.30;100.00;103373.09;5072675;28;20060;-49
2022/01/22 12:43:11;;;;;;;6.28;2.80;;;;;;;6.31;100.00;103377.47;5070340;28;20098;-49
2022/01/22 12:45:41;;;;;;;10.40;3.42;;;;;;;6.33;100.00;103381.81;5072406;28;20052;-49
2022/01/22 12:48:12;;;;;;;11.60;3.63;;;;;;;6.41;100.00;103387.00;5072636;28;20519;-46